Time;durP1;ratioP1;P1;durP2;ratioP2;P2;SDS_P1;SDS_P2;PMS_P1;PMS_P2;Temp;Humidity;BMP_temperature;BMP_pressure;BME280_temperature;BME280_humidity;BME280_pressure;Samples;Min_cycle;Max_cycle;Signal;HPM_P1;HPM_P2
2023/08/25 00:00:30;;;;;;;9.45;7.18;;;;;;;;;;4876371;29;20304;-83
2023/08/25 00:02:58;;;;;;;11.68;6.80;;;;;;;;;;4875953;29;20660;-83
2023/08/25 00:05:25;;;;;;;10.00;6.63;;;;;;;;;;4876229;29;20209;-83
2023/08/25 00:07:52;;;;;;;12.32;6.85;;;;;;;;;;4876080;29;20240;-83
2023/08/25 00:10:19;;;;;;;8.88;6.72;;;;;;;;;;4875964;29;20229;-83
2023/08/25 00:12:46;;;;;;;9.40;7.30;;;;;;;;;;4875549;29;20316;-83
2023/08/25 00:15:15;;;;;;;8.55;6.93;;;;;;;;;;4876148;29;20272;-82
2023/08/25 00:17:43;;;;;;;12.20;7.47;;;;;;;;;;4876078;29;20221;-84
2023/08/25 00:20:12;;;;;;;8.95;6.85;;;;;;;;;;4875522;29;20676;-82
2023/08/25 00:22:40;;;;;;;9.15;7.60;;;;;;;;;;4875878;29;20288;-83
2023/08/25 00:25:07;;;;;;;6.40;5.75;;;;;;;;;;4875869;29;20289;-84
2023/08/25 00:27:35;;;;;;;13.48;7.30;;;;;;;;;;4855801;29;20267;-83
2023/08/25 00:30:03;;;;;;;10.73;7.32;;;;;;;;;;4857055;29;20305;-82
2023/08/25 00:32:31;;;;;;;11.63;7.43;;;;;;;;;;4857273;29;20254;-82
2023/08/25 00:35:00;;;;;;;9.80;7.10;;;;;;;;;;4857238;29;20266;-83
2023/08/25 00:37:28;;;;;;;11.90;7.13;;;;;;;;;;4857151;29;20230;-82
2023/08/25 00:39:55;;;;;;;9.48;7.30;;;;;;;;;;4857632;29;20718;-82
2023/08/25 00:42:22;;;;;;;9.60;6.82;;;;;;;;;;4857152;29;20745;-82
2023/08/25 00:44:50;;;;;;;10.70;7.63;;;;;;;;;;4857136;29;20210;-85
2023/08/25 00:47:17;;;;;;;9.13;6.85;;;;;;;;;;4856065;29;20604;-83
2023/08/25 00:49:46;;;;;;;9.38;6.68;;;;;;;;;;4857058;29;20215;-83
2023/08/25 00:52:13;;;;;;;12.40;8.23;;;;;;;;;;4857047;29;20617;-82
2023/08/25 00:54:42;;;;;;;14.10;8.13;;;;;;;;;;4856247;29;20221;-83
2023/08/25 00:57:09;;;;;;;8.52;6.63;;;;;;;;;;4857601;29;20510;-83
2023/08/25 00:59:37;;;;;;;12.50;6.93;;;;;;;;;;4856959;29;20323;-82
2023/08/25 01:02:04;;;;;;;8.65;6.80;;;;;;;;;;4856990;29;20210;-84
2023/08/25 01:04:33;;;;;;;13.57;6.85;;;;;;;;;;4856511;29;20210;-84
2023/08/25 01:07:04;;;;;;;7.93;7.13;;;;;;;;;;4856818;29;20206;-83
2023/08/25 01:09:32;;;;;;;9.18;7.35;;;;;;;;;;4856514;29;20301;-82
2023/08/25 01:12:02;;;;;;;9.48;6.90;;;;;;;;;;4857569;29;20202;-82
2023/08/25 01:14:34;;;;;;;9.48;7.15;;;;;;;;;;4856813;29;20218;-83
2023/08/25 01:17:05;;;;;;;11.98;7.55;;;;;;;;;;4856353;29;20198;-83
2023/08/25 01:20:00;;;;;;;8.27;6.93;;;;;;;;;;4856812;29;20337;-83
2023/08/25 01:22:34;;;;;;;10.82;7.18;;;;;;;;;;4823765;29;20229;-84
2023/08/25 01:25:19;;;;;;;8.15;6.43;;;;;;;;;;4856801;29;20200;-82
2023/08/25 01:27:48;;;;;;;9.20;7.32;;;;;;;;;;4856926;29;20214;-83
2023/08/25 01:30:15;;;;;;;11.00;7.00;;;;;;;;;;4856828;29;20238;-84
2023/08/25 01:32:43;;;;;;;12.10;7.35;;;;;;;;;;4856181;29;20206;-83
2023/08/25 01:35:14;;;;;;;13.85;6.90;;;;;;;;;;4857319;29;20680;-84
2023/08/25 01:37:44;;;;;;;9.25;6.90;;;;;;;;;;4856894;29;20220;-84
2023/08/25 01:40:16;;;;;;;8.45;6.90;;;;;;;;;;4855802;29;20623;-83
2023/08/25 01:42:47;;;;;;;9.43;6.45;;;;;;;;;;4858124;29;20202;-85
2023/08/25 01:45:17;;;;;;;11.50;7.80;;;;;;;;;;4856772;29;20213;-84
2023/08/25 01:47:46;;;;;;;8.68;7.22;;;;;;;;;;4856040;29;20206;-84
2023/08/25 01:50:15;;;;;;;8.88;6.93;;;;;;;;;;4856405;29;20210;-83
2023/08/25 01:52:42;;;;;;;9.70;7.47;;;;;;;;;;4856469;29;20206;-83
2023/08/25 01:55:10;;;;;;;10.80;7.90;;;;;;;;;;4855922;29;20226;-83
2023/08/25 01:57:37;;;;;;;12.02;8.05;;;;;;;;;;4856367;29;20281;-82
2023/08/25 02:00:07;;;;;;;10.90;7.07;;;;;;;;;;4856152;29;20313;-82
2023/08/25 02:02:34;;;;;;;7.93;7.10;;;;;;;;;;4855613;29;20203;-83
2023/08/25 02:05:02;;;;;;;10.43;6.85;;;;;;;;;;4856584;29;20592;-83
2023/08/25 02:07:28;;;;;;;10.15;7.22;;;;;;;;;;4856289;29;20214;-82
2023/08/25 02:09:55;;;;;;;14.18;7.25;;;;;;;;;;4856482;29;20230;-82
2023/08/25 02:12:23;;;;;;;6.65;5.90;;;;;;;;;;4858196;29;20202;-84
2023/08/25 02:14:50;;;;;;;9.50;6.47;;;;;;;;;;4861009;29;20241;-82
2023/08/25 02:17:18;;;;;;;8.23;6.65;;;;;;;;;;4877206;29;20218;-84
2023/08/25 02:19:46;;;;;;;7.43;6.55;;;;;;;;;;4878516;29;20685;-83
2023/08/25 02:22:14;;;;;;;7.80;6.72;;;;;;;;;;4878674;29;20216;-82
2023/08/25 02:24:42;;;;;;;11.75;7.50;;;;;;;;;;4878814;29;20212;-83
2023/08/25 02:27:09;;;;;;;8.63;7.20;;;;;;;;;;4885224;29;20205;-82
2023/08/25 02:29:37;;;;;;;13.82;7.10;;;;;;;;;;4899337;29;20241;-83
2023/08/25 02:32:05;;;;;;;11.80;7.80;;;;;;;;;;4896495;29;20205;-82
2023/08/25 02:34:33;;;;;;;10.43;7.70;;;;;;;;;;4896743;29;20208;-84
2023/08/25 02:37:02;;;;;;;11.30;7.25;;;;;;;;;;4896810;29;20216;-84
2023/08/25 02:39:30;;;;;;;7.97;7.10;;;;;;;;;;4896135;29;20701;-82
2023/08/25 02:41:57;;;;;;;7.68;6.70;;;;;;;;;;4896807;29;20248;-84
2023/08/25 02:44:25;;;;;;;10.48;7.28;;;;;;;;;;4896441;29;20209;-83
2023/08/25 02:46:53;;;;;;;10.43;6.97;;;;;;;;;;4895154;29;20197;-83
2023/08/25 02:49:20;;;;;;;10.25;6.82;;;;;;;;;;4896554;29;20209;-83
2023/08/25 02:51:48;;;;;;;10.02;6.88;;;;;;;;;;4896177;29;20280;-83
2023/08/25 02:54:15;;;;;;;9.02;7.03;;;;;;;;;;4895736;29;20216;-84
2023/08/25 02:56:43;;;;;;;11.15;7.05;;;;;;;;;;4896132;29;20213;-82
2023/08/25 02:59:10;;;;;;;11.55;7.68;;;;;;;;;;4896108;29;20779;-83
2023/08/25 03:01:37;;;;;;;10.15;6.97;;;;;;;;;;4895860;29;20209;-82
2023/08/25 03:04:05;;;;;;;9.40;6.80;;;;;;;;;;4896185;29;20216;-82
2023/08/25 03:06:32;;;;;;;10.45;7.10;;;;;;;;;;4895772;29;20686;-82
2023/08/25 03:09:01;;;;;;;11.88;8.43;;;;;;;;;;4895343;29;20699;-83
2023/08/25 03:11:28;;;;;;;12.40;8.07;;;;;;;;;;4895502;29;20205;-82
2023/08/25 03:13:57;;;;;;;12.25;8.23;;;;;;;;;;4894990;29;20214;-83
2023/08/25 03:16:24;;;;;;;12.57;8.30;;;;;;;;;;4894913;29;20256;-82
2023/08/25 03:18:52;;;;;;;11.15;7.25;;;;;;;;;;4894767;29;20720;-83
2023/08/25 03:21:19;;;;;;;13.52;9.07;;;;;;;;;;4895610;29;20215;-83
2023/08/25 03:23:46;;;;;;;10.80;7.20;;;;;;;;;;4895728;29;20205;-83
2023/08/25 03:26:15;;;;;;;9.80;7.38;;;;;;;;;;4894870;29;20220;-84
2023/08/25 03:28:42;;;;;;;15.75;8.05;;;;;;;;;;4895781;29;20227;-83
2023/08/25 03:31:09;;;;;;;16.38;7.43;;;;;;;;;;4894877;29;20295;-83
2023/08/25 03:33:37;;;;;;;12.77;7.82;;;;;;;;;;4894394;29;20239;-82
2023/08/25 03:36:04;;;;;;;11.07;7.20;;;;;;;;;;4895374;29;20201;-82
2023/08/25 03:38:31;;;;;;;13.88;8.63;;;;;;;;;;4894333;29;20219;-83
2023/08/25 03:40:59;;;;;;;21.85;13.45;;;;;;;;;;4894494;29;20681;-82
2023/08/25 03:43:28;;;;;;;14.70;8.27;;;;;;;;;;4895101;29;20695;-82
2023/08/25 03:45:55;;;;;;;11.75;6.93;;;;;;;;;;4894848;29;20287;-82
2023/08/25 03:48:22;;;;;;;14.02;7.30;;;;;;;;;;4895068;29;20204;-82
2023/08/25 03:50:51;;;;;;;10.43;7.22;;;;;;;;;;4895828;29;20200;-82
2023/08/25 03:53:19;;;;;;;12.70;8.02;;;;;;;;;;4897071;29;20284;-83
2023/08/25 03:55:47;;;;;;;9.60;6.65;;;;;;;;;;4895545;29;20211;-82
2023/08/25 03:58:15;;;;;;;13.90;7.88;;;;;;;;;;4896496;29;20196;-82
2023/08/25 04:00:44;;;;;;;10.27;7.97;;;;;;;;;;4895389;29;20329;-81
2023/08/25 04:03:11;;;;;;;16.27;7.88;;;;;;;;;;4895093;29;20606;-83
2023/08/25 04:05:38;;;;;;;14.90;8.13;;;;;;;;;;4894950;29;20213;-82
2023/08/25 04:08:06;;;;;;;14.60;8.10;;;;;;;;;;4894716;29;20689;-83
2023/08/25 04:10:34;;;;;;;11.43;8.13;;;;;;;;;;4895284;29;20229;-83
2023/08/25 04:13:03;;;;;;;12.55;8.07;;;;;;;;;;4896156;29;20231;-82
2023/08/25 04:15:30;;;;;;;12.98;8.15;;;;;;;;;;4894460;29;20240;-83
2023/08/25 04:18:00;;;;;;;9.73;7.65;;;;;;;;;;4895154;29;20659;-82
2023/08/25 04:20:28;;;;;;;13.65;7.22;;;;;;;;;;4894690;29;20236;-84
2023/08/25 04:22:55;;;;;;;9.70;7.55;;;;;;;;;;4893485;29;20201;-83
2023/08/25 04:25:23;;;;;;;11.73;8.00;;;;;;;;;;4893660;29;20678;-83
2023/08/25 04:27:53;;;;;;;11.25;7.93;;;;;;;;;;4894512;29;20205;-83
2023/08/25 04:30:22;;;;;;;7.95;7.22;;;;;;;;;;4893652;29;20291;-82
2023/08/25 04:32:49;;;;;;;8.15;7.35;;;;;;;;;;4894088;29;20224;-83
2023/08/25 04:35:19;;;;;;;9.60;7.45;;;;;;;;;;4893830;29;20212;-83
2023/08/25 04:37:48;;;;;;;11.68;8.65;;;;;;;;;;4893972;29;20438;-83
2023/08/25 04:40:15;;;;;;;14.18;9.40;;;;;;;;;;4893993;29;20236;-83
2023/08/25 04:42:43;;;;;;;16.10;9.43;;;;;;;;;;4894414;29;20269;-83
2023/08/25 04:45:12;;;;;;;13.40;9.75;;;;;;;;;;4893945;29;20197;-83
2023/08/25 04:47:39;;;;;;;12.93;8.40;;;;;;;;;;4894541;29;20691;-82
2023/08/25 04:50:07;;;;;;;23.30;9.40;;;;;;;;;;4894646;29;20201;-83
2023/08/25 04:52:36;;;;;;;9.95;8.23;;;;;;;;;;4893963;29;20235;-83
2023/08/25 04:55:04;;;;;;;8.85;8.02;;;;;;;;;;4894367;29;20223;-83
2023/08/25 04:57:34;;;;;;;11.48;8.05;;;;;;;;;;4893992;29;20226;-84
2023/08/25 05:00:03;;;;;;;11.00;8.35;;;;;;;;;;4894063;29;20681;-83
2023/08/25 05:02:31;;;;;;;13.98;10.13;;;;;;;;;;4893743;29;20702;-83
2023/08/25 05:05:00;;;;;;;9.77;8.77;;;;;;;;;;4893076;29;20236;-83
2023/08/25 05:07:29;;;;;;;10.95;9.50;;;;;;;;;;4893656;29;20741;-83
2023/08/25 05:09:59;;;;;;;10.68;9.57;;;;;;;;;;4893987;29;20558;-84
2023/08/25 05:12:26;;;;;;;16.13;9.15;;;;;;;;;;4893842;29;20215;-85
2023/08/25 05:14:55;;;;;;;11.77;9.30;;;;;;;;;;4894013;29;20244;-83
2023/08/25 05:17:23;;;;;;;13.15;9.95;;;;;;;;;;4894015;29;20636;-83
2023/08/25 05:19:52;;;;;;;10.48;8.93;;;;;;;;;;4893589;29;20232;-83
2023/08/25 05:22:22;;;;;;;11.93;8.30;;;;;;;;;;4892930;29;20709;-82
2023/08/25 05:24:49;;;;;;;10.63;9.18;;;;;;;;;;4893794;29;20223;-82
2023/08/25 05:27:19;;;;;;;12.43;9.82;;;;;;;;;;4894037;29;20215;-83
2023/08/25 05:29:46;;;;;;;9.77;8.95;;;;;;;;;;4893532;29;20709;-82
2023/08/25 05:32:14;;;;;;;13.38;10.13;;;;;;;;;;4893136;29;20204;-83
2023/08/25 05:34:43;;;;;;;13.10;9.70;;;;;;;;;;4894068;29;20280;-83
2023/08/25 05:37:11;;;;;;;15.25;8.65;;;;;;;;;;4893365;29;20228;-82
2023/08/25 05:39:38;;;;;;;10.18;8.23;;;;;;;;;;4893492;29;20614;-83
2023/08/25 05:42:07;;;;;;;12.32;9.13;;;;;;;;;;4893545;29;20210;-81
2023/08/25 05:44:37;;;;;;;10.30;9.15;;;;;;;;;;4892780;29;20208;-83
2023/08/25 05:47:05;;;;;;;10.13;9.07;;;;;;;;;;4892727;29;20197;-84
2023/08/25 05:49:33;;;;;;;14.20;9.15;;;;;;;;;;4893613;29;20551;-82
2023/08/25 05:52:01;;;;;;;12.68;9.48;;;;;;;;;;4896840;29;20608;-83
2023/08/25 05:54:29;;;;;;;9.48;8.57;;;;;;;;;;4897173;29;20212;-84
2023/08/25 05:56:58;;;;;;;10.48;8.43;;;;;;;;;;4896978;29;20296;-82
2023/08/25 05:59:27;;;;;;;10.18;8.60;;;;;;;;;;4897071;29;20287;-82
2023/08/25 06:01:56;;;;;;;9.45;8.50;;;;;;;;;;4898631;29;20223;-82
2023/08/25 06:04:24;;;;;;;8.43;7.47;;;;;;;;;;4899803;29;20569;-84
2023/08/25 06:06:52;;;;;;;8.98;8.00;;;;;;;;;;4897046;29;20208;-83
2023/08/25 06:09:20;;;;;;;10.65;8.02;;;;;;;;;;4896922;29;20232;-84
2023/08/25 06:11:47;;;;;;;10.57;8.02;;;;;;;;;;4896784;29;20231;-85
2023/08/25 06:14:17;;;;;;;8.35;7.50;;;;;;;;;;4895782;29;20610;-83
2023/08/25 06:16:44;;;;;;;13.18;8.02;;;;;;;;;;4896083;29;20212;-84
2023/08/25 06:19:14;;;;;;;12.52;8.38;;;;;;;;;;4896686;29;20220;-84
2023/08/25 06:21:41;;;;;;;14.45;7.55;;;;;;;;;;4896962;29;20232;-83
2023/08/25 06:24:11;;;;;;;9.40;8.50;;;;;;;;;;4899264;29;20284;-83
2023/08/25 06:26:38;;;;;;;8.80;8.10;;;;;;;;;;4897678;29;20235;-84
2023/08/25 06:29:09;;;;;;;10.07;7.75;;;;;;;;;;4897075;29;20304;-85
2023/08/25 06:31:36;;;;;;;9.20;7.65;;;;;;;;;;4900838;29;20214;-84
2023/08/25 06:34:13;;;;;;;10.52;8.38;;;;;;;;;;4897013;29;20208;-83
2023/08/25 06:36:48;;;;;;;7.95;7.20;;;;;;;;;;4895588;29;20243;-83
2023/08/25 06:39:15;;;;;;;8.38;7.57;;;;;;;;;;4896644;29;20200;-84
2023/08/25 06:41:42;;;;;;;7.72;7.13;;;;;;;;;;4895633;29;20239;-82
2023/08/25 06:44:11;;;;;;;10.55;6.78;;;;;;;;;;4896595;29;20316;-83
2023/08/25 06:46:38;;;;;;;7.90;6.75;;;;;;;;;;4896932;29;20201;-82
2023/08/25 06:49:06;;;;;;;8.45;7.38;;;;;;;;;;4896353;29;20226;-84
2023/08/25 06:51:35;;;;;;;9.38;8.05;;;;;;;;;;4896619;29;20280;-83
2023/08/25 06:54:05;;;;;;;7.38;6.75;;;;;;;;;;4896422;29;20207;-83
2023/08/25 06:56:34;;;;;;;8.13;6.75;;;;;;;;;;4896469;29;20208;-83
2023/08/25 06:59:02;;;;;;;6.78;6.28;;;;;;;;;;4896732;29;20665;-83
2023/08/25 07:01:30;;;;;;;7.30;6.60;;;;;;;;;;4895365;29;20634;-83
2023/08/25 07:03:59;;;;;;;9.38;6.45;;;;;;;;;;4880261;29;20335;-83
2023/08/25 07:06:27;;;;;;;10.15;5.65;;;;;;;;;;4896954;29;20223;-84
2023/08/25 07:08:55;;;;;;;6.10;5.50;;;;;;;;;;4896327;29;20311;-83
2023/08/25 07:11:26;;;;;;;6.43;5.85;;;;;;;;;;4896015;29;20633;-83
2023/08/25 07:13:56;;;;;;;5.72;5.40;;;;;;;;;;4897452;29;20206;-82
2023/08/25 07:16:24;;;;;;;6.97;6.40;;;;;;;;;;4896548;29;20214;-82
2023/08/25 07:18:51;;;;;;;7.00;6.38;;;;;;;;;;4895823;29;20211;-82
2023/08/25 07:21:19;;;;;;;6.68;6.18;;;;;;;;;;4896408;29;20353;-85
2023/08/25 07:23:46;;;;;;;6.90;6.25;;;;;;;;;;4897257;29;20200;-84
2023/08/25 07:26:15;;;;;;;7.00;6.50;;;;;;;;;;4899662;29;20209;-84
2023/08/25 07:28:43;;;;;;;6.95;6.35;;;;;;;;;;4912211;29;20264;-83
2023/08/25 07:31:11;;;;;;;6.80;5.40;;;;;;;;;;4900211;29;20193;-83
2023/08/25 07:33:39;;;;;;;6.55;5.72;;;;;;;;;;4895911;29;20829;-82
2023/08/25 07:36:07;;;;;;;6.47;5.97;;;;;;;;;;4896483;29;20200;-83
2023/08/25 07:38:34;;;;;;;6.05;5.45;;;;;;;;;;4896126;29;20208;-84
2023/08/25 07:41:01;;;;;;;6.53;5.80;;;;;;;;;;4896815;29;20793;-82
2023/08/25 07:43:28;;;;;;;6.35;5.85;;;;;;;;;;4906733;29;20204;-82
2023/08/25 07:45:57;;;;;;;6.38;5.80;;;;;;;;;;4900674;29;20264;-82
2023/08/25 07:48:25;;;;;;;6.32;5.50;;;;;;;;;;4903659;29;20638;-82
2023/08/25 07:50:52;;;;;;;6.25;5.53;;;;;;;;;;4902018;29;20215;-84
2023/08/25 07:53:19;;;;;;;5.90;5.55;;;;;;;;;;4902826;29;20227;-84
2023/08/25 07:55:46;;;;;;;6.07;5.68;;;;;;;;;;4903106;29;20644;-86
2023/08/25 07:58:17;;;;;;;5.53;5.05;;;;;;;;;;4903572;29;20205;-83
2023/08/25 08:00:46;;;;;;;6.18;5.65;;;;;;;;;;4906056;29;20279;-82
2023/08/25 08:03:15;;;;;;;5.82;5.32;;;;;;;;;;4903588;29;20666;-82
2023/08/25 08:05:43;;;;;;;7.68;5.10;;;;;;;;;;4904169;29;20331;-83
2023/08/25 08:08:11;;;;;;;5.53;5.10;;;;;;;;;;4903307;29;20200;-83
2023/08/25 08:10:38;;;;;;;5.30;5.00;;;;;;;;;;4901247;29;20777;-83
2023/08/25 08:13:07;;;;;;;5.00;4.60;;;;;;;;;;4903315;29;20207;-82
2023/08/25 08:15:40;;;;;;;5.38;4.88;;;;;;;;;;4903381;29;20224;-83
2023/08/25 08:18:07;;;;;;;7.97;5.40;;;;;;;;;;4901577;29;20204;-83
2023/08/25 08:20:37;;;;;;;4.78;4.55;;;;;;;;;;4890344;29;20304;-82
2023/08/25 08:23:04;;;;;;;4.97;4.65;;;;;;;;;;4884484;29;20213;-83
2023/08/25 08:25:35;;;;;;;4.32;4.13;;;;;;;;;;4883858;29;20269;-83
2023/08/25 08:28:02;;;;;;;3.60;3.40;;;;;;;;;;4883097;29;20347;-83
2023/08/25 08:30:29;;;;;;;3.72;3.40;;;;;;;;;;4888282;29;20260;-82
2023/08/25 08:32:58;;;;;;;4.47;4.00;;;;;;;;;;4885517;29;20297;-84
2023/08/25 08:35:25;;;;;;;4.80;4.00;;;;;;;;;;4882785;29;20205;-82
2023/08/25 08:37:54;;;;;;;5.85;4.05;;;;;;;;;;4883794;29;20215;-83
2023/08/25 08:40:21;;;;;;;4.75;4.45;;;;;;;;;;4883874;29;20224;-83
2023/08/25 08:42:51;;;;;;;4.68;4.30;;;;;;;;;;4882121;29;20694;-82
2023/08/25 08:45:19;;;;;;;4.45;4.15;;;;;;;;;;4880424;29;20213;-82
2023/08/25 08:47:46;;;;;;;6.55;4.78;;;;;;;;;;4882501;29;20238;-84
2023/08/25 08:50:14;;;;;;;3.95;3.80;;;;;;;;;;4894310;29;20208;-82
2023/08/25 08:52:46;;;;;;;3.95;3.75;;;;;;;;;;4882293;29;20291;-83
2023/08/25 08:55:20;;;;;;;4.60;4.30;;;;;;;;;;4882820;29;20204;-83
2023/08/25 08:57:47;;;;;;;4.28;3.97;;;;;;;;;;4880561;29;20304;-83
2023/08/25 09:00:18;;;;;;;4.05;3.85;;;;;;;;;;4879528;29;20205;-82
2023/08/25 09:02:46;;;;;;;4.82;4.45;;;;;;;;;;4878539;29;20308;-83
2023/08/25 09:05:15;;;;;;;6.75;4.25;;;;;;;;;;4882923;29;20208;-82
2023/08/25 09:07:43;;;;;;;3.97;3.72;;;;;;;;;;4883606;29;20272;-83
2023/08/25 09:10:11;;;;;;;4.22;3.92;;;;;;;;;;4882023;29;20229;-82
2023/08/25 09:12:41;;;;;;;4.53;3.47;;;;;;;;;;4881380;29;20645;-82
2023/08/25 09:15:08;;;;;;;5.95;3.55;;;;;;;;;;4869551;29;20209;-84
2023/08/25 09:17:37;;;;;;;3.90;3.58;;;;;;;;;;4880222;29;20209;-83
2023/08/25 09:20:05;;;;;;;3.47;3.33;;;;;;;;;;4880868;29;20216;-83
2023/08/25 09:22:33;;;;;;;6.28;3.42;;;;;;;;;;4880684;29;20709;-83
2023/08/25 09:25:00;;;;;;;3.92;3.38;;;;;;;;;;4880487;29;20208;-83
2023/08/25 09:27:29;;;;;;;4.13;3.58;;;;;;;;;;4884871;29;20561;-83
2023/08/25 09:30:05;;;;;;;6.28;3.90;;;;;;;;;;4875987;29;20329;-82
2023/08/25 09:32:34;;;;;;;3.60;3.40;;;;;;;;;;4884995;29;20209;-82
2023/08/25 09:35:10;;;;;;;5.10;4.00;;;;;;;;;;4887130;29;20200;-83
2023/08/25 09:37:43;;;;;;;3.67;3.10;;;;;;;;;;4886400;29;20203;-82
2023/08/25 09:40:13;;;;;;;3.15;3.00;;;;;;;;;;4885439;29;20220;-82
2023/08/25 09:42:42;;;;;;;5.28;3.88;;;;;;;;;;4885565;29;20761;-84
2023/08/25 09:45:13;;;;;;;3.92;3.72;;;;;;;;;;4885338;29;20209;-83
2023/08/25 09:47:41;;;;;;;3.55;3.28;;;;;;;;;;4885544;29;20197;-82
2023/08/25 09:50:08;;;;;;;3.47;3.28;;;;;;;;;;4884978;29;20213;-83
2023/08/25 09:52:38;;;;;;;4.35;3.33;;;;;;;;;;4883269;29;20569;-82
2023/08/25 09:55:07;;;;;;;3.10;2.90;;;;;;;;;;4883942;29;20208;-81
2023/08/25 09:57:36;;;;;;;3.83;3.58;;;;;;;;;;4883696;29;20212;-83
2023/08/25 10:00:04;;;;;;;5.00;3.42;;;;;;;;;;4883996;29;20606;-85
2023/08/25 10:02:33;;;;;;;3.65;3.40;;;;;;;;;;4900237;29;20251;-83
2023/08/25 10:05:01;;;;;;;3.20;2.92;;;;;;;;;;4907116;29;20211;-83
2023/08/25 10:07:32;;;;;;;3.00;2.80;;;;;;;;;;4893113;29;20213;-82
2023/08/25 10:09:59;;;;;;;5.50;2.90;;;;;;;;;;4887781;29;20232;-82
2023/08/25 10:12:26;;;;;;;3.20;2.88;;;;;;;;;;4885577;29;20220;-83
2023/08/25 10:14:57;;;;;;;2.70;2.60;;;;;;;;;;4885533;29;20205;-83
2023/08/25 10:17:27;;;;;;;2.40;2.30;;;;;;;;;;4885012;29;20240;-82
2023/08/25 10:19:58;;;;;;;2.92;2.75;;;;;;;;;;4883599;29;20205;-83
2023/08/25 10:22:26;;;;;;;3.20;3.00;;;;;;;;;;4886731;29;20233;-84
2023/08/25 10:25:03;;;;;;;4.05;3.03;;;;;;;;;;4888775;29;20248;-82
2023/08/25 10:27:31;;;;;;;3.15;3.00;;;;;;;;;;4893824;29;20315;-82
2023/08/25 10:29:58;;;;;;;4.20;2.80;;;;;;;;;;4900724;29;20240;-81
2023/08/25 10:32:46;;;;;;;3.53;2.75;;;;;;;;;;4889472;29;20303;-82
2023/08/25 10:35:15;;;;;;;4.82;3.08;;;;;;;;;;4886031;29;20245;-81
2023/08/25 10:37:44;;;;;;;3.72;3.30;;;;;;;;;;4882917;29;20225;-84
2023/08/25 10:40:12;;;;;;;4.88;3.03;;;;;;;;;;4881808;29;20316;-81
2023/08/25 10:42:39;;;;;;;2.90;2.72;;;;;;;;;;4881356;29;20289;-82
2023/08/25 10:45:08;;;;;;;5.75;3.47;;;;;;;;;;4882994;29;20767;-82
2023/08/25 10:47:41;;;;;;;3.72;3.33;;;;;;;;;;4884885;29;20293;-81
2023/08/25 10:50:08;;;;;;;3.30;3.10;;;;;;;;;;4885381;29;20698;-82
2023/08/25 10:52:41;;;;;;;3.15;2.95;;;;;;;;;;4884297;29;20318;-83
2023/08/25 10:55:25;;;;;;;3.53;3.08;;;;;;;;;;4882499;29;20240;-82
2023/08/25 10:57:52;;;;;;;3.75;3.42;;;;;;;;;;4883676;29;20312;-81
2023/08/25 11:00:27;;;;;;;2.78;2.58;;;;;;;;;;4883526;29;20229;-83
2023/08/25 11:02:57;;;;;;;3.40;3.10;;;;;;;;;;4884864;29;20268;-80
2023/08/25 11:05:45;;;;;;;3.72;2.97;;;;;;;;;;4887219;29;20225;-81
2023/08/25 11:08:26;;;;;;;3.60;3.35;;;;;;;;;;4887236;29;20892;-81
2023/08/25 11:11:09;;;;;;;3.22;3.13;;;;;;;;;;4883274;29;20232;-81
2023/08/25 11:13:39;;;;;;;3.42;3.13;;;;;;;;;;4899822;29;20259;-81
2023/08/25 11:16:07;;;;;;;2.67;2.58;;;;;;;;;;4885787;29;20232;-81
2023/08/25 11:18:36;;;;;;;3.70;3.47;;;;;;;;;;4883523;29;20229;-81
2023/08/25 11:21:04;;;;;;;2.67;2.58;;;;;;;;;;4882372;29;20228;-81
2023/08/25 11:23:42;;;;;;;3.50;3.20;;;;;;;;;;4885132;29;20304;-81
2023/08/25 11:26:09;;;;;;;2.70;2.60;;;;;;;;;;4884039;29;20292;-82
2023/08/25 11:28:37;;;;;;;2.85;2.75;;;;;;;;;;4885672;29;20237;-80
2023/08/25 11:31:07;;;;;;;2.70;2.50;;;;;;;;;;4865414;29;20700;-79
2023/08/25 11:33:35;;;;;;;2.83;2.65;;;;;;;;;;4865581;29;20239;-82
2023/08/25 11:36:04;;;;;;;3.05;2.63;;;;;;;;;;4863184;29;20229;-82
2023/08/25 11:38:32;;;;;;;4.28;2.85;;;;;;;;;;4880604;29;20265;-82
2023/08/25 11:41:00;;;;;;;4.75;3.08;;;;;;;;;;4881979;29;20237;-82
2023/08/25 11:43:32;;;;;;;2.65;2.55;;;;;;;;;;4881621;29;20248;-81
2023/08/25 11:45:59;;;;;;;3.42;2.45;;;;;;;;;;4880454;29;20993;-82
2023/08/25 11:48:28;;;;;;;3.83;3.33;;;;;;;;;;4882225;29;20233;-81
2023/08/25 11:50:56;;;;;;;3.38;3.25;;;;;;;;;;4882761;29;20228;-81
2023/08/25 11:53:23;;;;;;;2.75;2.55;;;;;;;;;;4882986;29;20257;-82
2023/08/25 11:56:04;;;;;;;3.05;2.70;;;;;;;;;;4884402;29;20233;-81
2023/08/25 11:58:32;;;;;;;3.40;3.10;;;;;;;;;;4881632;29;20265;-82
2023/08/25 12:01:06;;;;;;;2.95;2.45;;;;;;;;;;4881095;29;20240;-82
2023/08/25 12:03:33;;;;;;;2.88;2.67;;;;;;;;;;4881533;29;20692;-82
2023/08/25 12:06:04;;;;;;;3.33;2.75;;;;;;;;;;4881849;29;20253;-80
2023/08/25 12:08:33;;;;;;;3.10;2.90;;;;;;;;;;4864996;29;20229;-81
2023/08/25 12:11:00;;;;;;;2.85;2.65;;;;;;;;;;4860227;29;20265;-81
2023/08/25 12:13:30;;;;;;;3.00;2.75;;;;;;;;;;4864106;29;20225;-81
2023/08/25 12:15:57;;;;;;;3.08;2.88;;;;;;;;;;4861956;29;20286;-81
2023/08/25 12:18:25;;;;;;;3.05;2.92;;;;;;;;;;4865078;29;20302;-81
2023/08/25 12:20:52;;;;;;;12.05;2.70;;;;;;;;;;4866433;29;20254;-81
2023/08/25 12:23:20;;;;;;;2.67;2.47;;;;;;;;;;4864654;29;20309;-81
2023/08/25 12:25:49;;;;;;;2.88;2.55;;;;;;;;;;4862567;29;20318;-82
2023/08/25 12:28:17;;;;;;;3.83;2.28;;;;;;;;;;4860408;29;20234;-82
2023/08/25 12:30:47;;;;;;;3.33;3.13;;;;;;;;;;4876562;29;20332;-83
2023/08/25 12:33:15;;;;;;;2.63;2.50;;;;;;;;;;4889670;29;20311;-82
2023/08/25 12:35:41;;;;;;;2.72;2.63;;;;;;;;;;4898839;29;20236;-81
2023/08/25 12:38:10;;;;;;;2.58;2.38;;;;;;;;;;4885798;29;20233;-83
2023/08/25 12:40:39;;;;;;;2.47;2.35;;;;;;;;;;4873763;29;20462;-81
2023/08/25 12:43:06;;;;;;;4.10;3.60;;;;;;;;;;4874566;29;20478;-83
2023/08/25 12:45:34;;;;;;;2.78;2.22;;;;;;;;;;4880410;29;20233;-82
2023/08/25 12:48:03;;;;;;;2.83;2.63;;;;;;;;;;4879228;29;20237;-82
2023/08/25 12:50:30;;;;;;;3.00;2.80;;;;;;;;;;4881502;29;20252;-82
2023/08/25 12:53:01;;;;;;;4.30;2.95;;;;;;;;;;4879202;29;20240;-83
2023/08/25 12:55:29;;;;;;;5.05;2.72;;;;;;;;;;4876808;29;20297;-82
2023/08/25 12:57:57;;;;;;;3.28;2.50;;;;;;;;;;4882489;29;20209;-81
2023/08/25 13:00:28;;;;;;;2.45;2.35;;;;;;;;;;4888866;29;20213;-81
2023/08/25 13:02:55;;;;;;;3.22;3.03;;;;;;;;;;4895704;29;20240;-81
2023/08/25 13:05:25;;;;;;;2.63;2.42;;;;;;;;;;4898855;29;20629;-83
2023/08/25 13:07:51;;;;;;;2.83;2.60;;;;;;;;;;4896964;29;20650;-80
2023/08/25 13:10:19;;;;;;;3.08;2.88;;;;;;;;;;4895871;29;20729;-82
2023/08/25 13:12:46;;;;;;;4.20;2.47;;;;;;;;;;4894250;29;20699;-82
2023/08/25 13:15:14;;;;;;;5.63;2.10;;;;;;;;;;4896718;29;20216;-82
2023/08/25 13:17:44;;;;;;;4.15;2.75;;;;;;;;;;4903730;29;20201;-82
2023/08/25 13:20:12;;;;;;;2.60;2.40;;;;;;;;;;4902897;29;20240;-81
2023/08/25 13:22:41;;;;;;;3.00;2.25;;;;;;;;;;4900714;29;20236;-81
2023/08/25 13:25:09;;;;;;;3.92;1.90;;;;;;;;;;4901577;29;20740;-82
2023/08/25 13:27:37;;;;;;;8.18;1.85;;;;;;;;;;4901572;29;20223;-82
2023/08/25 13:30:06;;;;;;;3.03;2.10;;;;;;;;;;4898950;29;20243;-83
2023/08/25 13:32:34;;;;;;;1.90;1.80;;;;;;;;;;4901552;29;20217;-81
2023/08/25 13:35:02;;;;;;;1.95;1.83;;;;;;;;;;4902737;29;20196;-81
2023/08/25 13:37:30;;;;;;;3.25;2.10;;;;;;;;;;4898445;29;20211;-83
2023/08/25 13:39:59;;;;;;;3.92;1.92;;;;;;;;;;4903632;29;20619;-82
2023/08/25 13:42:27;;;;;;;1.90;1.80;;;;;;;;;;4908409;29;20232;-83
2023/08/25 13:44:54;;;;;;;2.47;1.88;;;;;;;;;;4904701;29;20226;-82
2023/08/25 13:47:22;;;;;;;6.93;1.90;;;;;;;;;;4904850;29;20211;-81
2023/08/25 13:49:51;;;;;;;2.33;1.90;;;;;;;;;;4903349;29;20209;-82
2023/08/25 13:52:19;;;;;;;2.25;2.13;;;;;;;;;;4902811;29;20197;-82
2023/08/25 13:54:48;;;;;;;4.00;2.25;;;;;;;;;;4902468;29;20749;-83
2023/08/25 13:57:18;;;;;;;2.75;2.25;;;;;;;;;;4902570;29;20209;-83
2023/08/25 13:59:46;;;;;;;2.72;2.60;;;;;;;;;;4901410;29;20488;-82
2023/08/25 14:02:15;;;;;;;2.20;2.03;;;;;;;;;;4902020;29;20204;-85
2023/08/25 14:04:42;;;;;;;2.17;1.98;;;;;;;;;;4902869;29;20209;-82
2023/08/25 14:07:10;;;;;;;2.45;2.28;;;;;;;;;;4902742;29;20200;-82
2023/08/25 14:09:37;;;;;;;2.45;2.25;;;;;;;;;;4904042;29;20232;-82
2023/08/25 14:12:06;;;;;;;5.82;2.03;;;;;;;;;;4905578;29;20233;-83
2023/08/25 14:14:37;;;;;;;2.60;2.40;;;;;;;;;;4904340;29;20208;-82
2023/08/25 14:17:05;;;;;;;2.55;2.20;;;;;;;;;;4904568;29;20200;-82
2023/08/25 14:19:31;;;;;;;2.90;2.05;;;;;;;;;;4904769;29;20686;-82
2023/08/25 14:21:59;;;;;;;3.38;2.50;;;;;;;;;;4904022;29;20303;-81
2023/08/25 14:24:28;;;;;;;3.22;2.75;;;;;;;;;;4904182;29;20602;-81
2023/08/25 14:26:55;;;;;;;2.33;2.15;;;;;;;;;;4904732;29;20204;-82
2023/08/25 14:29:22;;;;;;;3.67;2.15;;;;;;;;;;4904802;29;20225;-81
2023/08/25 14:31:52;;;;;;;2.22;2.13;;;;;;;;;;4903411;29;20243;-83
2023/08/25 14:34:21;;;;;;;2.25;2.15;;;;;;;;;;4903014;29;20655;-82
2023/08/25 14:36:49;;;;;;;4.55;2.30;;;;;;;;;;4903353;29;20232;-83
2023/08/25 14:39:18;;;;;;;5.78;2.22;;;;;;;;;;4904082;29;20219;-82
2023/08/25 14:41:45;;;;;;;3.47;2.33;;;;;;;;;;4904212;29;20227;-82
2023/08/25 14:44:13;;;;;;;4.65;2.83;;;;;;;;;;4904372;29;20564;-81
2023/08/25 14:46:40;;;;;;;4.90;2.63;;;;;;;;;;4895247;29;20208;-81